createdAt,value
2022-08-28T00:00:38.064Z,77.19
2022-08-28T00:03:06.427Z,77.26
2022-08-28T00:05:35.020Z,76.69
2022-08-28T00:08:03.520Z,75.84
2022-08-28T00:10:31.398Z,75.99
2022-08-28T00:13:00.005Z,75.38
2022-08-28T00:15:32.657Z,76.06
2022-08-28T00:18:01.401Z,76.77
2022-08-28T00:20:30.193Z,77.14
2022-08-28T00:22:58.404Z,77.03
2022-08-28T00:25:28.964Z,76.95
2022-08-28T00:27:57.920Z,77.03
2022-08-28T00:30:30.508Z,76.80
2022-08-28T00:33:01.093Z,76.65
2022-08-28T00:35:29.664Z,77.06
2022-08-28T00:37:58.023Z,77.53
2022-08-28T00:40:32.824Z,77.02
2022-08-28T00:43:02.622Z,76.44
2022-08-28T00:45:39.289Z,76.55
2022-08-28T00:48:07.884Z,76.36
2022-08-28T00:50:51.328Z,76.34
2022-08-28T00:53:20.095Z,75.81
2022-08-28T00:55:50.362Z,76.20
2022-08-28T00:58:20.145Z,76.31
2022-08-28T01:00:49.934Z,76.87
2022-08-28T01:03:18.005Z,76.27
2022-08-28T01:05:48.001Z,76.34
2022-08-28T01:08:16.350Z,76.77
2022-08-28T01:10:49.396Z,75.69
2022-08-28T01:13:18.118Z,76.35
2022-08-28T01:15:46.670Z,76.99
2022-08-28T01:18:17.095Z,76.79
2022-08-28T01:20:53.206Z,76.33
2022-08-28T01:23:32.253Z,76.67
2022-08-28T01:26:01.990Z,76.52
2022-08-28T01:28:39.829Z,77.29
2022-08-28T01:31:10.590Z,76.86
2022-08-28T01:33:41.386Z,76.18
2022-08-28T01:36:12.204Z,76.66
2022-08-28T01:38:41.360Z,76.88
2022-08-28T01:41:11.832Z,77.18
2022-08-28T01:43:41.363Z,76.58
2022-08-28T01:46:09.886Z,76.70
2022-08-28T01:48:42.663Z,76.87
2022-08-28T01:51:12.414Z,76.83
2022-08-28T01:53:41.486Z,76.01
2022-08-28T01:56:12.970Z,76.11
2022-08-28T01:58:41.915Z,75.51
2022-08-28T02:01:11.937Z,76.22
2022-08-28T02:03:41.758Z,75.22
2022-08-28T02:06:10.142Z,75.14
2022-08-28T02:08:37.941Z,74.91
2022-08-28T02:11:08.177Z,74.36
2022-08-28T02:13:38.691Z,74.57
2022-08-28T02:16:09.261Z,74.37
2022-08-28T02:18:38.798Z,74.59
2022-08-28T02:21:08.614Z,74.94
2022-08-28T02:23:37.931Z,74.89
2022-08-28T02:26:05.890Z,74.93
2022-08-28T02:28:33.810Z,75.18
2022-08-28T02:31:03.100Z,76.28
2022-08-28T02:33:31.039Z,76.09
2022-08-28T02:35:58.896Z,75.67
2022-08-28T02:38:26.826Z,76.05
2022-08-28T02:40:54.574Z,76.92
2022-08-28T02:43:22.420Z,76.74
2022-08-28T02:45:50.277Z,76.48
2022-08-28T02:48:19.898Z,76.65
2022-08-28T02:50:47.883Z,76.55
2022-08-28T02:53:15.651Z,76.42
2022-08-28T02:55:43.411Z,76.19
2022-08-28T02:58:11.333Z,76.22
2022-08-28T03:00:39.231Z,75.65
2022-08-28T03:03:06.997Z,75.78
2022-08-28T03:05:36.099Z,76.02
2022-08-28T03:08:04.374Z,76.30
2022-08-28T03:10:32.569Z,76.42
2022-08-28T03:13:00.412Z,76.32
2022-08-28T03:15:28.417Z,75.84
2022-08-28T03:17:56.263Z,76.20
2022-08-28T03:20:24.075Z,76.54
2022-08-28T03:23:25.530Z,76.59
2022-08-28T03:25:53.368Z,76.91
2022-08-28T03:28:21.445Z,76.79
2022-08-28T03:30:49.707Z,76.47
2022-08-28T03:33:17.769Z,75.84
2022-08-28T03:35:45.849Z,76.60
2022-08-28T03:38:16.061Z,77.01
2022-08-28T03:40:46.434Z,77.06
2022-08-28T03:43:15.976Z,76.98
2022-08-28T03:45:52.772Z,76.85
2022-08-28T03:48:21.027Z,76.87
2022-08-28T03:50:49.002Z,77.07
2022-08-28T03:53:18.165Z,77.11
2022-08-28T03:55:46.263Z,77.40
2022-08-28T03:58:18.860Z,77.28
2022-08-28T04:00:47.398Z,77.54
2022-08-28T04:03:15.613Z,78.09
2022-08-28T04:05:44.992Z,77.24
2022-08-28T04:08:15.986Z,77.48
2022-08-28T04:10:47.596Z,77.14
2022-08-28T04:13:17.231Z,78.29
2022-08-28T04:15:45.860Z,78.22
2022-08-28T04:18:13.919Z,78.08
2022-08-28T04:20:41.766Z,78.35
2022-08-28T04:23:14.225Z,77.79
2022-08-28T04:25:42.042Z,78.04
2022-08-28T04:28:11.249Z,78.11
2022-08-28T04:30:41.581Z,78.00
2022-08-28T04:33:10.539Z,77.80
2022-08-28T04:35:38.592Z,77.67
2022-08-28T04:38:06.406Z,77.74
2022-08-28T04:40:34.238Z,77.70
2022-08-28T04:43:02.149Z,77.19
2022-08-28T04:45:31.339Z,77.64
2022-08-28T04:48:00.256Z,78.07
2022-08-28T04:50:31.141Z,77.82
2022-08-28T04:52:59.237Z,77.60
2022-08-28T04:55:36.423Z,78.52
2022-08-28T04:58:16.135Z,78.33
2022-08-28T05:00:48.020Z,77.58
2022-08-28T05:03:17.636Z,77.93
2022-08-28T05:05:47.235Z,76.96
2022-08-28T05:08:16.845Z,77.29
2022-08-28T05:10:46.371Z,77.74
2022-08-28T05:13:15.688Z,77.62
2022-08-28T05:15:47.115Z,77.21
2022-08-28T05:18:16.934Z,76.72
2022-08-28T05:20:47.519Z,77.21
2022-08-28T05:23:16.947Z,77.27
2022-08-28T05:25:48.308Z,77.19
2022-08-28T05:28:18.106Z,76.51
2022-08-28T05:30:48.144Z,76.75
2022-08-28T05:33:17.041Z,77.02
2022-08-28T05:35:47.302Z,77.42
2022-08-28T05:38:17.040Z,76.66
2022-08-28T05:40:47.849Z,76.42
2022-08-28T05:43:17.456Z,76.56
2022-08-28T05:45:46.769Z,76.35
2022-08-28T05:48:16.267Z,77.04
2022-08-28T05:50:47.477Z,76.63
2022-08-28T05:53:15.597Z,76.42
2022-08-28T05:55:43.473Z,76.58
2022-08-28T05:58:25.396Z,76.72
2022-08-28T06:00:54.556Z,76.41
2022-08-28T06:03:22.995Z,76.40
2022-08-28T06:05:55.638Z,76.14
2022-08-28T06:08:23.528Z,76.56
2022-08-28T06:10:51.296Z,75.87
2022-08-28T06:13:19.106Z,76.22
2022-08-28T06:15:48.319Z,76.38
2022-08-28T06:18:18.143Z,75.54
2022-08-28T06:20:47.348Z,76.64
2022-08-28T06:23:24.067Z,76.20
2022-08-28T06:25:52.997Z,76.38
2022-08-28T06:28:22.945Z,76.32
2022-08-28T06:31:15.935Z,75.91
2022-08-28T06:33:42.490Z,76.17
2022-08-28T06:36:11.280Z,76.29
2022-08-28T06:38:39.464Z,76.11
2022-08-28T06:41:10.099Z,75.30
2022-08-28T06:43:38.191Z,74.92
2022-08-28T06:46:06.110Z,74.84
2022-08-28T06:48:34.116Z,75.52
2022-08-28T06:51:07.710Z,74.69
2022-08-28T06:53:35.532Z,75.48
2022-08-28T06:56:07.677Z,74.89
2022-08-28T06:58:36.801Z,74.42
2022-08-28T07:01:07.640Z,74.43
2022-08-28T07:03:36.041Z,74.62
2022-08-28T07:06:15.153Z,73.92
2022-08-28T07:08:44.660Z,74.25
2022-08-28T07:11:16.094Z,74.26
2022-08-28T07:13:45.584Z,75.10
2022-08-28T07:16:15.594Z,75.04
2022-08-28T07:18:43.969Z,74.60
2022-08-28T07:21:14.581Z,74.49
2022-08-28T07:23:44.108Z,74.83
2022-08-28T07:26:15.666Z,74.23
2022-08-28T07:28:43.885Z,74.20
2022-08-28T07:31:16.174Z,73.97
2022-08-28T07:33:45.034Z,73.52
2022-08-28T07:36:28.806Z,74.01
2022-08-28T07:39:02.347Z,74.03
2022-08-28T07:41:32.696Z,74.07
2022-08-28T07:44:18.325Z,74.45
2022-08-28T07:46:46.669Z,74.30
2022-08-28T07:49:17.182Z,74.30
2022-08-28T07:51:46.645Z,73.13
2022-08-28T07:54:16.909Z,73.83
2022-08-28T07:56:46.518Z,73.62
2022-08-28T07:59:16.892Z,73.34
2022-08-28T08:01:47.758Z,73.05
2022-08-28T08:04:17.988Z,73.75
2022-08-28T08:06:47.098Z,73.29
2022-08-28T08:09:17.625Z,73.73
2022-08-28T08:11:46.572Z,73.30
2022-08-28T08:14:15.025Z,72.58
2022-08-28T08:16:44.714Z,72.94
2022-08-28T08:19:14.828Z,73.80
2022-08-28T08:21:44.670Z,73.66
2022-08-28T08:24:19.781Z,74.14
2022-08-28T08:26:55.206Z,73.77
2022-08-28T08:29:28.279Z,73.56
2022-08-28T08:31:58.068Z,73.25
2022-08-28T08:34:26.463Z,73.05
2022-08-28T08:36:54.279Z,72.93
2022-08-28T08:39:23.436Z,73.06
2022-08-28T08:41:54.649Z,73.63
2022-08-28T08:44:34.080Z,74.26
2022-08-28T08:47:15.294Z,73.62
2022-08-28T08:49:50.874Z,72.92
2022-08-28T08:52:38.344Z,73.62
2022-08-28T08:55:17.580Z,72.93
2022-08-28T08:57:49.291Z,73.21
2022-08-28T09:00:19.562Z,73.39
2022-08-28T09:02:54.326Z,73.66
2022-08-28T09:05:29.624Z,73.00
2022-08-28T09:08:02.610Z,72.76
2022-08-28T09:10:40.126Z,72.71
2022-08-28T09:13:18.658Z,73.47
2022-08-28T09:15:50.498Z,73.98
2022-08-28T09:18:22.827Z,73.37
2022-08-28T09:20:51.883Z,73.59
2022-08-28T09:23:20.548Z,73.80
2022-08-28T09:25:56.041Z,73.17
2022-08-28T09:28:30.341Z,73.05
2022-08-28T09:31:02.887Z,72.43
2022-08-28T09:33:35.966Z,72.11
2022-08-28T09:36:32.627Z,71.64
2022-08-28T09:39:07.569Z,71.99
2022-08-28T09:41:57.766Z,73.08
2022-08-28T09:44:25.922Z,74.21
2022-08-28T09:46:54.060Z,73.78
2022-08-28T09:49:29.006Z,73.44
2022-08-28T09:51:59.532Z,73.63
2022-08-28T09:54:33.928Z,73.08
2022-08-28T09:57:04.502Z,74.06
2022-08-28T09:59:32.649Z,73.06
2022-08-28T10:02:20.903Z,72.46
2022-08-28T10:04:59.893Z,73.41
2022-08-28T10:07:36.896Z,73.25
2022-08-28T10:10:18.770Z,73.53
2022-08-28T10:13:01.526Z,72.22
2022-08-28T10:15:33.827Z,73.95
2022-08-28T10:18:34.070Z,74.34
2022-08-28T10:21:10.510Z,74.83
2022-08-28T10:23:49.509Z,75.21
2022-08-28T10:26:30.114Z,74.42
2022-08-28T10:29:09.903Z,73.99
2022-08-28T10:31:46.807Z,74.66
2022-08-28T10:34:29.466Z,74.42
2022-08-28T10:37:04.119Z,74.24
2022-08-28T10:39:47.289Z,73.89
2022-08-28T10:42:20.757Z,74.14
2022-08-28T10:44:53.489Z,74.22
2022-08-28T10:47:23.649Z,73.43
2022-08-28T10:49:58.634Z,72.81
2022-08-28T10:52:31.981Z,71.85
2022-08-28T10:55:06.015Z,72.17
2022-08-28T10:57:39.917Z,70.95
2022-08-28T11:00:13.142Z,70.55
2022-08-28T11:02:43.168Z,71.70
2022-08-28T11:05:11.802Z,70.68
2022-08-28T11:07:45.638Z,70.44
2022-08-28T11:10:20.971Z,71.51
2022-08-28T11:12:51.383Z,71.67
2022-08-28T11:15:44.444Z,71.76
2022-08-28T11:19:05.525Z,70.93
2022-08-28T11:21:38.160Z,70.53
2022-08-28T11:24:10.433Z,69.28
2022-08-28T11:26:47.045Z,69.47
2022-08-28T11:29:49.398Z,69.14
2022-08-28T11:32:41.377Z,68.94
2022-08-28T11:35:48.465Z,67.26
2022-08-28T11:38:53.520Z,67.97
2022-08-28T11:41:24.501Z,68.50
2022-08-28T11:44:13.465Z,66.84
2022-08-28T11:46:42.888Z,66.76
2022-08-28T11:49:45.047Z,67.13
2022-08-28T11:52:44.094Z,66.96
2022-08-28T11:55:22.883Z,65.50
2022-08-28T12:00:49.371Z,68.37
2022-08-28T12:03:27.567Z,67.22
2022-08-28T12:05:59.013Z,67.15
2022-08-28T12:09:09.912Z,67.08
2022-08-28T12:12:06.573Z,66.59
2022-08-28T12:15:08.403Z,66.03
2022-08-28T12:17:46.891Z,65.26
2022-08-28T12:20:24.024Z,65.00
2022-08-28T12:22:55.831Z,64.21
2022-08-28T12:25:33.269Z,64.79
2022-08-28T12:28:08.082Z,64.16
2022-08-28T12:30:50.519Z,61.70
2022-08-28T12:33:26.620Z,61.25
2022-08-28T12:36:02.198Z,60.09
2022-08-28T12:38:34.535Z,61.34
2022-08-28T12:41:03.303Z,60.98
2022-08-28T12:43:35.751Z,60.49
2022-08-28T12:46:20.073Z,58.48
2022-08-28T12:48:51.250Z,58.72
2022-08-28T12:51:22.423Z,57.66
2022-08-28T12:53:55.184Z,57.78
2022-08-28T12:56:25.399Z,59.41
2022-08-28T12:58:53.857Z,58.43
2022-08-28T13:01:29.401Z,58.03
2022-08-28T13:03:59.862Z,58.45
2022-08-28T13:06:30.243Z,60.08
2022-08-28T13:09:03.317Z,60.15
2022-08-28T13:11:34.882Z,59.57
2022-08-28T13:14:04.320Z,57.71
2022-08-28T13:16:39.972Z,58.05
2022-08-28T13:19:14.581Z,57.89
2022-08-28T13:21:58.488Z,58.57
2022-08-28T13:24:43.896Z,57.76
2022-08-28T13:27:25.599Z,58.63
2022-08-28T13:30:00.036Z,59.17
2022-08-28T13:32:30.500Z,56.98
2022-08-28T13:35:33.409Z,57.81
2022-08-28T13:38:03.779Z,57.58
2022-08-28T13:40:57.458Z,57.92
2022-08-28T13:43:28.137Z,57.01
2022-08-28T13:45:56.489Z,56.70
2022-08-28T13:48:26.823Z,57.08
2022-08-28T13:50:59.810Z,56.87
2022-08-28T13:53:27.639Z,57.50
2022-08-28T13:55:58.417Z,58.17
2022-08-28T13:58:26.354Z,58.45
2022-08-28T14:00:55.180Z,58.54
2022-08-28T14:03:38.396Z,57.45
2022-08-28T14:06:09.223Z,58.22
2022-08-28T14:08:37.084Z,57.85
2022-08-28T14:11:07.234Z,59.25
2022-08-28T14:13:35.205Z,58.22
2022-08-28T14:16:05.723Z,58.78
2022-08-28T14:18:33.832Z,57.46
2022-08-28T14:21:01.697Z,55.75
2022-08-28T14:23:29.654Z,55.55
2022-08-28T14:25:57.464Z,55.87
2022-08-28T14:28:26.621Z,54.53
2022-08-28T14:30:54.563Z,54.81
2022-08-28T14:33:22.687Z,54.02
2022-08-28T14:35:51.086Z,54.02
2022-08-28T14:38:19.095Z,54.51
2022-08-28T14:40:46.887Z,54.20
2022-08-28T14:43:15.506Z,54.61
2022-08-28T14:45:46.784Z,54.52
2022-08-28T14:48:15.671Z,55.23
2022-08-28T14:50:44.670Z,56.21
2022-08-28T14:53:14.574Z,54.75
2022-08-28T14:55:44.622Z,53.52
2022-08-28T14:58:13.561Z,52.76
2022-08-28T15:00:42.531Z,53.53
2022-08-28T15:03:12.790Z,54.58
2022-08-28T15:05:41.621Z,55.39
2022-08-28T15:08:10.385Z,56.86
2022-08-28T15:10:39.266Z,57.73
2022-08-28T15:13:09.971Z,57.74
2022-08-28T15:15:39.418Z,58.17
2022-08-28T15:18:08.006Z,59.15
2022-08-28T15:20:40.910Z,58.83
2022-08-28T15:23:10.007Z,57.25
2022-08-28T15:25:43.338Z,56.61
2022-08-28T15:28:11.689Z,56.81
2022-08-28T15:30:49.874Z,56.95
2022-08-28T15:33:18.266Z,59.00
2022-08-28T15:35:47.585Z,58.84
2022-08-28T15:38:15.531Z,58.25
2022-08-28T15:41:01.392Z,59.66
2022-08-28T15:43:29.430Z,59.28
2022-08-28T15:45:57.311Z,59.89
2022-08-28T15:48:25.302Z,59.81
2022-08-28T15:50:54.726Z,59.53
2022-08-28T15:53:22.705Z,60.91
2022-08-28T15:55:51.008Z,60.79
2022-08-28T15:58:19.634Z,60.35
2022-08-28T16:00:47.654Z,59.36
2022-08-28T16:03:15.698Z,58.97
2022-08-28T16:05:45.678Z,58.11
2022-08-28T16:08:15.222Z,58.63
2022-08-28T16:10:48.820Z,58.06
2022-08-28T16:13:17.584Z,57.75
2022-08-28T16:15:46.602Z,56.66
2022-08-28T16:18:16.551Z,56.35
2022-08-28T16:20:46.340Z,57.72
2022-08-28T16:23:16.135Z,57.54
2022-08-28T16:25:45.050Z,57.83
2022-08-28T16:28:14.444Z,57.15
2022-08-28T16:30:43.848Z,57.06
2022-08-28T16:33:31.520Z,58.05
2022-08-28T16:36:02.273Z,57.74
2022-08-28T16:38:31.487Z,57.20
2022-08-28T16:40:59.477Z,57.19
2022-08-28T16:43:27.629Z,55.91
2022-08-28T16:45:56.437Z,56.40
2022-08-28T16:48:24.576Z,56.04
2022-08-28T16:50:52.425Z,56.74
2022-08-28T16:53:27.261Z,56.08
2022-08-28T16:55:58.064Z,55.71
2022-08-28T16:58:26.072Z,57.04
2022-08-28T17:00:55.060Z,57.24
2022-08-28T17:03:26.510Z,56.81
2022-08-28T17:05:56.247Z,56.83
2022-08-28T17:08:24.605Z,56.69
2022-08-28T17:10:52.464Z,57.74
2022-08-28T17:13:23.792Z,57.00
2022-08-28T17:15:52.685Z,57.61
2022-08-28T17:18:20.697Z,57.79
2022-08-28T17:21:07.078Z,57.61
2022-08-28T17:23:44.440Z,58.23
2022-08-28T17:26:15.365Z,57.76
2022-08-28T17:28:44.921Z,58.58
2022-08-28T17:31:14.284Z,59.11
2022-08-28T17:33:45.191Z,59.52
2022-08-28T17:36:32.460Z,59.46
2022-08-28T17:39:01.577Z,60.12
2022-08-28T17:41:29.845Z,60.24
2022-08-28T17:43:59.133Z,60.73
2022-08-28T17:46:27.231Z,61.34
2022-08-28T17:49:00.645Z,61.67
2022-08-28T17:51:42.074Z,62.64
2022-08-28T17:54:12.934Z,62.78
2022-08-28T17:56:41.153Z,63.29
2022-08-28T17:59:11.031Z,64.50
2022-08-28T18:01:39.409Z,64.69
2022-08-28T18:04:07.600Z,64.63
2022-08-28T18:06:36.055Z,64.53
2022-08-28T18:09:06.730Z,65.08
2022-08-28T18:11:38.421Z,65.58
2022-08-28T18:14:07.054Z,65.19
2022-08-28T18:16:38.495Z,65.28
2022-08-28T18:19:08.086Z,65.82
2022-08-28T18:21:36.660Z,65.96
2022-08-28T18:24:05.344Z,66.13
2022-08-28T18:26:33.255Z,66.23
2022-08-28T18:29:03.764Z,66.62
2022-08-28T18:31:34.049Z,66.59
2022-08-28T18:34:03.905Z,66.88
2022-08-28T18:36:31.905Z,67.01
2022-08-28T18:38:59.744Z,66.92
2022-08-28T18:41:43.206Z,66.94
2022-08-28T18:44:14.527Z,67.26
2022-08-28T18:46:43.094Z,67.22
2022-08-28T18:49:13.049Z,67.40
2022-08-28T18:51:41.796Z,66.56
2022-08-28T18:54:09.904Z,66.81
2022-08-28T18:56:38.383Z,66.48
2022-08-28T18:59:06.654Z,67.50
2022-08-28T19:01:35.006Z,67.65
2022-08-28T19:04:03.185Z,68.32
2022-08-28T19:06:33.947Z,67.98
2022-08-28T19:09:01.787Z,68.61
2022-08-28T19:11:31.332Z,69.40
2022-08-28T19:13:59.631Z,70.42
2022-08-28T19:16:32.663Z,69.65
2022-08-28T19:19:01.296Z,69.73
2022-08-28T19:21:30.187Z,69.96
2022-08-28T19:24:00.132Z,70.53
2022-08-28T19:26:29.118Z,70.19
2022-08-28T19:28:57.685Z,69.67
2022-08-28T19:31:28.275Z,69.70
2022-08-28T19:33:57.300Z,69.94
2022-08-28T19:36:27.143Z,69.67
2022-08-28T19:38:55.166Z,69.90
2022-08-28T19:41:24.650Z,70.00
2022-08-28T19:43:53.422Z,69.99
2022-08-28T19:46:24.700Z,70.40
2022-08-28T19:48:54.740Z,70.47
2022-08-28T19:51:24.838Z,70.33
2022-08-28T19:53:59.025Z,70.47
2022-08-28T19:56:30.242Z,69.89
2022-08-28T19:59:01.055Z,69.50
2022-08-28T20:01:31.521Z,69.01
2022-08-28T20:04:01.435Z,68.66
2022-08-28T20:06:32.140Z,68.98
2022-08-28T20:09:00.465Z,68.76
2022-08-28T20:11:30.799Z,68.58
2022-08-28T20:14:03.875Z,68.76
2022-08-28T20:16:34.641Z,68.77
2022-08-28T20:19:03.932Z,68.72
2022-08-28T20:21:37.327Z,69.07
2022-08-28T20:24:07.294Z,68.71
2022-08-28T20:26:37.644Z,68.27
2022-08-28T20:29:07.232Z,68.30
2022-08-28T20:31:35.697Z,68.28
2022-08-28T20:34:04.066Z,69.06
2022-08-28T20:36:31.887Z,68.80
2022-08-28T20:39:00.028Z,68.53
2022-08-28T20:41:28.459Z,68.89
2022-08-28T20:43:58.017Z,69.16
2022-08-28T20:46:26.240Z,69.13
2022-08-28T20:48:54.071Z,69.66
2022-08-28T20:51:42.417Z,69.49
2022-08-28T20:54:10.499Z,69.11
2022-08-28T20:56:38.762Z,68.88
2022-08-28T20:59:08.170Z,68.59
2022-08-28T21:01:36.433Z,68.49
2022-08-28T21:04:05.157Z,68.71
2022-08-28T21:06:33.678Z,69.41
2022-08-28T21:09:01.575Z,69.18
2022-08-28T21:11:29.458Z,68.80
2022-08-28T21:13:57.256Z,68.83
2022-08-28T21:16:26.444Z,68.81
2022-08-28T21:19:14.430Z,69.35
2022-08-28T21:21:42.371Z,69.26
2022-08-28T21:24:13.636Z,69.36
2022-08-28T21:26:42.705Z,68.81
2022-08-28T21:29:11.862Z,68.74
2022-08-28T21:31:48.727Z,68.88
2022-08-28T21:34:17.466Z,68.98
2022-08-28T21:36:50.445Z,69.02
2022-08-28T21:39:20.348Z,68.83
2022-08-28T21:41:48.769Z,68.60
2022-08-28T21:44:17.517Z,68.24
2022-08-28T21:46:47.003Z,68.94
2022-08-28T21:49:14.730Z,68.86
2022-08-28T21:51:42.561Z,69.13
2022-08-28T21:54:10.549Z,69.40
2022-08-28T21:56:38.370Z,69.00
2022-08-28T21:59:06.356Z,68.63
2022-08-28T22:01:34.345Z,68.44
2022-08-28T22:04:04.170Z,68.24
2022-08-28T22:06:32.300Z,68.49
2022-08-28T22:09:00.120Z,68.52
2022-08-28T22:11:28.459Z,69.18
2022-08-28T22:13:56.770Z,68.86
2022-08-28T22:16:25.612Z,68.28
2022-08-28T22:18:53.681Z,67.91
2022-08-28T22:21:44.428Z,68.48
2022-08-28T22:24:13.240Z,68.35
2022-08-28T22:26:41.928Z,68.62
2022-08-28T22:29:10.089Z,68.96
2022-08-28T22:32:04.165Z,69.17
2022-08-28T22:34:32.160Z,69.38
2022-08-28T22:37:02.160Z,69.29
2022-08-28T22:39:29.954Z,68.98
2022-08-28T22:41:57.720Z,68.99
2022-08-28T22:44:25.477Z,69.56
2022-08-28T22:46:53.316Z,69.67
2022-08-28T22:49:21.084Z,69.42
2022-08-28T22:51:49.216Z,69.51
2022-08-28T22:54:18.743Z,69.52
2022-08-28T22:56:46.510Z,69.15
2022-08-28T22:59:14.296Z,68.90
2022-08-28T23:01:43.364Z,69.16
2022-08-28T23:04:11.701Z,69.15
2022-08-28T23:06:40.314Z,69.19
2022-08-28T23:09:08.710Z,69.69
2022-08-28T23:11:38.355Z,69.83
2022-08-28T23:14:06.644Z,69.50
2022-08-28T23:16:35.310Z,69.45
2022-08-28T23:19:07.882Z,69.41
2022-08-28T23:21:43.495Z,69.42
2022-08-28T23:24:12.554Z,69.71
2022-08-28T23:26:41.708Z,69.67
2022-08-28T23:29:10.151Z,69.83
2022-08-28T23:31:38.471Z,70.33
2022-08-28T23:34:08.239Z,70.19
2022-08-28T23:36:37.121Z,69.41
2022-08-28T23:39:07.777Z,69.71
2022-08-28T23:41:35.612Z,69.98
2022-08-28T23:44:08.501Z,70.13
2022-08-28T23:46:41.382Z,70.60
2022-08-28T23:49:09.791Z,71.14
2022-08-28T23:51:37.845Z,70.70
2022-08-28T23:54:06.849Z,70.61
2022-08-28T23:56:34.863Z,70.20
2022-08-28T23:59:05.066Z,69.93
